Terminal Aerodrome Forecast
Issued by NWS Wilmington, NC

Current Version | Previous Version | Text Only | Print | Product List | Glossary On
Versions: 1 2 3 4 5 6 7 8 9 10 11 12
000
FTUS42 KILM 140525
TAFILM
TAF
KILM 140525Z 1406/1506 23008KT P6SM SKC
      TEMPO 1406/1410 23012G22KT
     FM141500 26011KT P6SM SCT200
     FM150000 27003KT P6SM SKC=

USA.gov is the U.S. government's official web portal to all federal, state and local government web resources and services.